sensor_id;sensor_type;location;lat;lon;timestamp;P1;durP1;ratioP1;P2;durP2;ratioP2
69841;SDS011;57138;51.326;-0.068;2022-09-12T00:01:09;21.17;;;12.65;;
69841;SDS011;57138;51.326;-0.068;2022-09-12T00:03:38;19.42;;;15.27;;
69841;SDS011;57138;51.326;-0.068;2022-09-12T00:06:08;20.15;;;12.43;;
69841;SDS011;57138;51.326;-0.068;2022-09-12T00:08:40;18.55;;;14.20;;
69841;SDS011;57138;51.326;-0.068;2022-09-12T00:11:06;19.63;;;13.82;;
69841;SDS011;57138;51.326;-0.068;2022-09-12T00:13:34;20.52;;;14.25;;
69841;SDS011;57138;51.326;-0.068;2022-09-12T00:16:00;23.67;;;15.02;;
69841;SDS011;57138;51.326;-0.068;2022-09-12T00:18:25;24.20;;;16.33;;
69841;SDS011;57138;51.326;-0.068;2022-09-12T00:20:51;30.23;;;17.90;;
69841;SDS011;57138;51.326;-0.068;2022-09-12T00:23:16;25.98;;;16.90;;
69841;SDS011;57138;51.326;-0.068;2022-09-12T00:25:42;26.20;;;16.48;;
69841;SDS011;57138;51.326;-0.068;2022-09-12T00:28:09;25.70;;;17.13;;
69841;SDS011;57138;51.326;-0.068;2022-09-12T00:30:39;26.67;;;16.65;;
69841;SDS011;57138;51.326;-0.068;2022-09-12T00:33:08;23.45;;;16.95;;
69841;SDS011;57138;51.326;-0.068;2022-09-12T00:35:46;28.23;;;18.33;;
69841;SDS011;57138;51.326;-0.068;2022-09-12T00:38:14;23.77;;;16.48;;
69841;SDS011;57138;51.326;-0.068;2022-09-12T00:40:40;28.00;;;17.67;;
69841;SDS011;57138;51.326;-0.068;2022-09-12T00:48:45;24.98;;;17.35;;
69841;SDS011;57138;51.326;-0.068;2022-09-12T00:51:18;25.90;;;17.80;;
69841;SDS011;57138;51.326;-0.068;2022-09-12T00:53:45;26.98;;;17.40;;
69841;SDS011;57138;51.326;-0.068;2022-09-12T00:56:14;24.60;;;17.15;;
69841;SDS011;57138;51.326;-0.068;2022-09-12T00:59:04;26.98;;;16.95;;
69841;SDS011;57138;51.326;-0.068;2022-09-12T01:01:42;26.27;;;18.67;;
69841;SDS011;57138;51.326;-0.068;2022-09-12T01:04:11;25.88;;;18.08;;
69841;SDS011;57138;51.326;-0.068;2022-09-12T01:06:39;24.65;;;18.15;;
69841;SDS011;57138;51.326;-0.068;2022-09-12T01:09:06;26.77;;;17.85;;
69841;SDS011;57138;51.326;-0.068;2022-09-12T01:11:36;29.98;;;18.00;;
69841;SDS011;57138;51.326;-0.068;2022-09-12T01:14:04;28.05;;;16.90;;
69841;SDS011;57138;51.326;-0.068;2022-09-12T01:16:30;27.88;;;19.08;;
69841;SDS011;57138;51.326;-0.068;2022-09-12T01:30:01;28.77;;;17.30;;
69841;SDS011;57138;51.326;-0.068;2022-09-12T01:35:03;24.60;;;17.63;;
69841;SDS011;57138;51.326;-0.068;2022-09-12T01:38:10;24.67;;;17.00;;
69841;SDS011;57138;51.326;-0.068;2022-09-12T01:40:52;28.73;;;17.15;;
69841;SDS011;57138;51.326;-0.068;2022-09-12T01:46:15;23.35;;;17.08;;
69841;SDS011;57138;51.326;-0.068;2022-09-12T01:54:14;24.55;;;16.95;;
69841;SDS011;57138;51.326;-0.068;2022-09-12T01:56:45;21.30;;;14.85;;
69841;SDS011;57138;51.326;-0.068;2022-09-12T01:59:17;26.17;;;15.80;;
69841;SDS011;57138;51.326;-0.068;2022-09-12T02:01:57;22.33;;;16.05;;
69841;SDS011;57138;51.326;-0.068;2022-09-12T02:04:52;21.92;;;17.52;;
69841;SDS011;57138;51.326;-0.068;2022-09-12T02:07:34;24.33;;;15.23;;
69841;SDS011;57138;51.326;-0.068;2022-09-12T02:10:16;21.63;;;15.52;;
69841;SDS011;57138;51.326;-0.068;2022-09-12T02:12:52;22.02;;;15.68;;
69841;SDS011;57138;51.326;-0.068;2022-09-12T02:15:23;20.88;;;15.23;;
69841;SDS011;57138;51.326;-0.068;2022-09-12T02:17:54;21.92;;;15.18;;
69841;SDS011;57138;51.326;-0.068;2022-09-12T02:20:24;24.42;;;15.45;;
69841;SDS011;57138;51.326;-0.068;2022-09-12T02:22:53;23.15;;;15.45;;
69841;SDS011;57138;51.326;-0.068;2022-09-12T02:25:21;25.67;;;14.73;;
69841;SDS011;57138;51.326;-0.068;2022-09-12T02:30:19;25.30;;;14.98;;
69841;SDS011;57138;51.326;-0.068;2022-09-12T02:38:03;20.83;;;13.55;;
69841;SDS011;57138;51.326;-0.068;2022-09-12T02:43:00;19.85;;;13.18;;
69841;SDS011;57138;51.326;-0.068;2022-09-12T02:45:27;22.77;;;13.25;;
69841;SDS011;57138;51.326;-0.068;2022-09-12T02:50:28;18.48;;;12.63;;
69841;SDS011;57138;51.326;-0.068;2022-09-12T02:52:54;20.58;;;13.38;;
69841;SDS011;57138;51.326;-0.068;2022-09-12T02:55:24;18.92;;;12.40;;
69841;SDS011;57138;51.326;-0.068;2022-09-12T02:57:50;19.20;;;13.13;;
69841;SDS011;57138;51.326;-0.068;2022-09-12T03:00:15;22.77;;;12.35;;
69841;SDS011;57138;51.326;-0.068;2022-09-12T03:02:50;17.85;;;12.40;;
69841;SDS011;57138;51.326;-0.068;2022-09-12T03:05:54;21.80;;;13.88;;
69841;SDS011;57138;51.326;-0.068;2022-09-12T03:11:37;14.98;;;10.93;;
69841;SDS011;57138;51.326;-0.068;2022-09-12T03:14:28;16.15;;;11.40;;
69841;SDS011;57138;51.326;-0.068;2022-09-12T03:17:27;15.32;;;10.30;;
69841;SDS011;57138;51.326;-0.068;2022-09-12T03:23:01;21.58;;;11.32;;
69841;SDS011;57138;51.326;-0.068;2022-09-12T03:25:35;16.05;;;10.05;;
69841;SDS011;57138;51.326;-0.068;2022-09-12T03:28:08;14.60;;;8.20;;
69841;SDS011;57138;51.326;-0.068;2022-09-12T03:30:40;24.67;;;12.00;;
69841;SDS011;57138;51.326;-0.068;2022-09-12T03:33:10;14.77;;;10.35;;
69841;SDS011;57138;51.326;-0.068;2022-09-12T03:35:39;18.85;;;10.18;;
69841;SDS011;57138;51.326;-0.068;2022-09-12T03:38:05;17.50;;;11.27;;
69841;SDS011;57138;51.326;-0.068;2022-09-12T03:40:32;16.40;;;12.38;;
69841;SDS011;57138;51.326;-0.068;2022-09-12T03:42:58;14.60;;;11.38;;
69841;SDS011;57138;51.326;-0.068;2022-09-12T03:45:24;25.92;;;11.30;;
69841;SDS011;57138;51.326;-0.068;2022-09-12T03:47:49;19.05;;;12.02;;
69841;SDS011;57138;51.326;-0.068;2022-09-12T03:50:17;16.20;;;11.48;;
69841;SDS011;57138;51.326;-0.068;2022-09-12T03:52:45;20.38;;;13.65;;
69841;SDS011;57138;51.326;-0.068;2022-09-12T03:55:11;22.42;;;12.15;;
69841;SDS011;57138;51.326;-0.068;2022-09-12T03:57:36;19.80;;;12.70;;
69841;SDS011;57138;51.326;-0.068;2022-09-12T04:00:03;20.35;;;12.68;;
69841;SDS011;57138;51.326;-0.068;2022-09-12T04:02:30;21.85;;;14.13;;
69841;SDS011;57138;51.326;-0.068;2022-09-12T04:04:55;18.38;;;12.60;;
69841;SDS011;57138;51.326;-0.068;2022-09-12T04:07:20;20.25;;;11.93;;
69841;SDS011;57138;51.326;-0.068;2022-09-12T04:09:46;23.98;;;14.82;;
69841;SDS011;57138;51.326;-0.068;2022-09-12T04:12:11;16.65;;;11.65;;
69841;SDS011;57138;51.326;-0.068;2022-09-12T04:14:38;21.58;;;14.05;;
69841;SDS011;57138;51.326;-0.068;2022-09-12T04:17:03;18.60;;;13.20;;
69841;SDS011;57138;51.326;-0.068;2022-09-12T04:19:29;18.90;;;13.32;;
69841;SDS011;57138;51.326;-0.068;2022-09-12T04:21:54;16.70;;;12.30;;
69841;SDS011;57138;51.326;-0.068;2022-09-12T04:24:20;20.20;;;12.60;;
69841;SDS011;57138;51.326;-0.068;2022-09-12T04:26:45;22.25;;;15.30;;
69841;SDS011;57138;51.326;-0.068;2022-09-12T04:29:11;20.77;;;12.68;;
69841;SDS011;57138;51.326;-0.068;2022-09-12T04:31:39;18.30;;;11.65;;
69841;SDS011;57138;51.326;-0.068;2022-09-12T04:34:05;19.42;;;12.48;;
69841;SDS011;57138;51.326;-0.068;2022-09-12T04:36:31;20.98;;;12.35;;
69841;SDS011;57138;51.326;-0.068;2022-09-12T04:38:58;14.27;;;11.90;;
69841;SDS011;57138;51.326;-0.068;2022-09-12T04:41:26;18.98;;;12.38;;
69841;SDS011;57138;51.326;-0.068;2022-09-12T04:43:55;16.95;;;12.70;;
69841;SDS011;57138;51.326;-0.068;2022-09-12T04:46:28;16.75;;;13.00;;
69841;SDS011;57138;51.326;-0.068;2022-09-12T04:48:55;20.92;;;13.65;;
69841;SDS011;57138;51.326;-0.068;2022-09-12T04:51:22;24.02;;;14.55;;
69841;SDS011;57138;51.326;-0.068;2022-09-12T04:54:04;22.08;;;14.02;;
69841;SDS011;57138;51.326;-0.068;2022-09-12T04:56:31;20.45;;;13.38;;
69841;SDS011;57138;51.326;-0.068;2022-09-12T04:58:59;19.95;;;13.25;;
69841;SDS011;57138;51.326;-0.068;2022-09-12T05:01:26;21.70;;;13.35;;
69841;SDS011;57138;51.326;-0.068;2022-09-12T05:03:52;17.35;;;11.60;;
69841;SDS011;57138;51.326;-0.068;2022-09-12T05:06:20;16.30;;;11.15;;
69841;SDS011;57138;51.326;-0.068;2022-09-12T05:08:48;18.48;;;10.25;;
69841;SDS011;57138;51.326;-0.068;2022-09-12T05:11:14;16.27;;;10.15;;
69841;SDS011;57138;51.326;-0.068;2022-09-12T05:13:42;15.88;;;9.30;;
69841;SDS011;57138;51.326;-0.068;2022-09-12T05:16:12;15.10;;;8.48;;
69841;SDS011;57138;51.326;-0.068;2022-09-12T05:18:39;19.23;;;8.73;;
69841;SDS011;57138;51.326;-0.068;2022-09-12T05:21:06;16.40;;;8.60;;
69841;SDS011;57138;51.326;-0.068;2022-09-12T05:23:33;19.58;;;9.38;;
69841;SDS011;57138;51.326;-0.068;2022-09-12T05:25:59;14.98;;;9.40;;
69841;SDS011;57138;51.326;-0.068;2022-09-12T05:28:36;13.82;;;8.48;;
69841;SDS011;57138;51.326;-0.068;2022-09-12T05:31:12;13.65;;;7.80;;
69841;SDS011;57138;51.326;-0.068;2022-09-12T05:33:41;14.95;;;8.13;;
69841;SDS011;57138;51.326;-0.068;2022-09-12T05:36:10;13.35;;;7.80;;
69841;SDS011;57138;51.326;-0.068;2022-09-12T05:38:37;12.93;;;7.32;;
69841;SDS011;57138;51.326;-0.068;2022-09-12T05:43:30;11.50;;;6.10;;
69841;SDS011;57138;51.326;-0.068;2022-09-12T05:46:00;12.15;;;5.70;;
69841;SDS011;57138;51.326;-0.068;2022-09-12T05:48:29;12.52;;;5.90;;
69841;SDS011;57138;51.326;-0.068;2022-09-12T05:51:02;9.95;;;6.82;;
69841;SDS011;57138;51.326;-0.068;2022-09-12T05:53:30;16.88;;;6.82;;
69841;SDS011;57138;51.326;-0.068;2022-09-12T05:56:06;9.48;;;5.82;;
69841;SDS011;57138;51.326;-0.068;2022-09-12T05:58:36;12.43;;;5.38;;
69841;SDS011;57138;51.326;-0.068;2022-09-12T06:01:06;8.80;;;5.47;;
69841;SDS011;57138;51.326;-0.068;2022-09-12T06:03:39;12.15;;;6.05;;
69841;SDS011;57138;51.326;-0.068;2022-09-12T06:06:06;14.50;;;6.38;;
69841;SDS011;57138;51.326;-0.068;2022-09-12T06:08:33;9.07;;;5.68;;
69841;SDS011;57138;51.326;-0.068;2022-09-12T06:11:01;9.18;;;5.18;;
69841;SDS011;57138;51.326;-0.068;2022-09-12T06:13:30;12.18;;;5.00;;
69841;SDS011;57138;51.326;-0.068;2022-09-12T06:18:34;11.68;;;4.78;;
69841;SDS011;57138;51.326;-0.068;2022-09-12T06:21:01;12.95;;;4.18;;
69841;SDS011;57138;51.326;-0.068;2022-09-12T06:23:32;10.30;;;4.55;;
69841;SDS011;57138;51.326;-0.068;2022-09-12T06:25:57;9.27;;;4.30;;
69841;SDS011;57138;51.326;-0.068;2022-09-12T06:28:23;7.82;;;3.67;;
69841;SDS011;57138;51.326;-0.068;2022-09-12T06:30:49;12.75;;;4.13;;
69841;SDS011;57138;51.326;-0.068;2022-09-12T06:33:16;17.58;;;4.63;;
69841;SDS011;57138;51.326;-0.068;2022-09-12T06:35:42;11.43;;;4.28;;
69841;SDS011;57138;51.326;-0.068;2022-09-12T06:38:08;10.82;;;4.20;;
69841;SDS011;57138;51.326;-0.068;2022-09-12T06:40:34;10.43;;;3.97;;
69841;SDS011;57138;51.326;-0.068;2022-09-12T06:43:08;11.75;;;3.88;;
69841;SDS011;57138;51.326;-0.068;2022-09-12T06:45:38;12.15;;;4.07;;
69841;SDS011;57138;51.326;-0.068;2022-09-12T06:48:04;9.52;;;4.00;;
69841;SDS011;57138;51.326;-0.068;2022-09-12T06:50:29;12.90;;;3.47;;
69841;SDS011;57138;51.326;-0.068;2022-09-12T06:52:55;9.98;;;3.00;;
69841;SDS011;57138;51.326;-0.068;2022-09-12T06:55:20;13.05;;;3.75;;
69841;SDS011;57138;51.326;-0.068;2022-09-12T06:57:48;8.38;;;3.78;;
69841;SDS011;57138;51.326;-0.068;2022-09-12T07:00:13;12.25;;;3.13;;
69841;SDS011;57138;51.326;-0.068;2022-09-12T07:02:39;5.32;;;3.08;;
69841;SDS011;57138;51.326;-0.068;2022-09-12T07:05:05;8.13;;;4.38;;
69841;SDS011;57138;51.326;-0.068;2022-09-12T07:07:30;10.73;;;3.30;;
69841;SDS011;57138;51.326;-0.068;2022-09-12T07:09:58;6.55;;;3.60;;
69841;SDS011;57138;51.326;-0.068;2022-09-12T07:12:24;8.20;;;3.75;;
69841;SDS011;57138;51.326;-0.068;2022-09-12T07:14:49;8.90;;;3.45;;
69841;SDS011;57138;51.326;-0.068;2022-09-12T07:17:14;9.80;;;3.70;;
69841;SDS011;57138;51.326;-0.068;2022-09-12T07:19:40;7.55;;;3.65;;
69841;SDS011;57138;51.326;-0.068;2022-09-12T07:22:05;8.90;;;3.30;;
69841;SDS011;57138;51.326;-0.068;2022-09-12T07:24:31;8.43;;;2.85;;
69841;SDS011;57138;51.326;-0.068;2022-09-12T07:26:56;6.28;;;2.50;;
69841;SDS011;57138;51.326;-0.068;2022-09-12T07:29:21;11.30;;;3.25;;
69841;SDS011;57138;51.326;-0.068;2022-09-12T07:31:47;6.30;;;2.20;;
69841;SDS011;57138;51.326;-0.068;2022-09-12T07:34:12;12.43;;;3.83;;
69841;SDS011;57138;51.326;-0.068;2022-09-12T07:36:38;7.30;;;2.85;;
69841;SDS011;57138;51.326;-0.068;2022-09-12T07:39:03;9.05;;;2.67;;
69841;SDS011;57138;51.326;-0.068;2022-09-12T07:41:30;8.63;;;2.90;;
69841;SDS011;57138;51.326;-0.068;2022-09-12T07:43:58;5.75;;;2.50;;
69841;SDS011;57138;51.326;-0.068;2022-09-12T07:46:25;6.80;;;2.58;;
69841;SDS011;57138;51.326;-0.068;2022-09-12T07:48:54;10.15;;;2.75;;
69841;SDS011;57138;51.326;-0.068;2022-09-12T07:51:22;8.40;;;2.65;;
69841;SDS011;57138;51.326;-0.068;2022-09-12T07:53:49;9.90;;;2.38;;
69841;SDS011;57138;51.326;-0.068;2022-09-12T07:56:16;5.32;;;1.90;;
69841;SDS011;57138;51.326;-0.068;2022-09-12T07:58:43;7.35;;;2.45;;
69841;SDS011;57138;51.326;-0.068;2022-09-12T08:01:16;10.50;;;2.28;;
69841;SDS011;57138;51.326;-0.068;2022-09-12T08:03:44;7.53;;;2.33;;
69841;SDS011;57138;51.326;-0.068;2022-09-12T08:06:16;11.23;;;3.08;;
69841;SDS011;57138;51.326;-0.068;2022-09-12T08:08:44;7.63;;;2.20;;
69841;SDS011;57138;51.326;-0.068;2022-09-12T08:11:11;8.90;;;3.03;;
69841;SDS011;57138;51.326;-0.068;2022-09-12T08:13:39;7.90;;;2.35;;
69841;SDS011;57138;51.326;-0.068;2022-09-12T08:16:07;7.10;;;2.00;;
69841;SDS011;57138;51.326;-0.068;2022-09-12T08:18:36;5.90;;;1.80;;
69841;SDS011;57138;51.326;-0.068;2022-09-12T08:21:20;5.85;;;1.90;;
69841;SDS011;57138;51.326;-0.068;2022-09-12T08:23:54;8.00;;;1.85;;
69841;SDS011;57138;51.326;-0.068;2022-09-12T08:26:26;7.43;;;1.73;;
69841;SDS011;57138;51.326;-0.068;2022-09-12T08:28:52;6.18;;;1.85;;
69841;SDS011;57138;51.326;-0.068;2022-09-12T08:31:18;6.85;;;1.75;;
69841;SDS011;57138;51.326;-0.068;2022-09-12T08:33:45;7.50;;;2.28;;
69841;SDS011;57138;51.326;-0.068;2022-09-12T08:36:12;7.07;;;1.73;;
69841;SDS011;57138;51.326;-0.068;2022-09-12T08:38:41;4.03;;;1.80;;
69841;SDS011;57138;51.326;-0.068;2022-09-12T08:49:27;9.48;;;2.08;;
69841;SDS011;57138;51.326;-0.068;2022-09-12T08:51:58;6.25;;;2.47;;
69841;SDS011;57138;51.326;-0.068;2022-09-12T08:54:32;5.95;;;2.10;;
69841;SDS011;57138;51.326;-0.068;2022-09-12T08:57:02;7.50;;;2.22;;
69841;SDS011;57138;51.326;-0.068;2022-09-12T09:00:03;33.72;;;5.88;;
69841;SDS011;57138;51.326;-0.068;2022-09-12T09:02:39;8.68;;;2.35;;
69841;SDS011;57138;51.326;-0.068;2022-09-12T09:13:56;5.50;;;1.92;;
69841;SDS011;57138;51.326;-0.068;2022-09-12T09:16:52;6.18;;;2.00;;
69841;SDS011;57138;51.326;-0.068;2022-09-12T09:19:54;4.25;;;1.65;;
69841;SDS011;57138;51.326;-0.068;2022-09-12T09:22:27;9.88;;;2.55;;
69841;SDS011;57138;51.326;-0.068;2022-09-12T09:25:01;11.18;;;2.78;;
69841;SDS011;57138;51.326;-0.068;2022-09-12T09:27:36;4.80;;;1.70;;
69841;SDS011;57138;51.326;-0.068;2022-09-12T09:30:14;7.07;;;2.10;;
69841;SDS011;57138;51.326;-0.068;2022-09-12T09:32:44;5.50;;;1.63;;
69841;SDS011;57138;51.326;-0.068;2022-09-12T09:35:17;13.95;;;3.60;;
69841;SDS011;57138;51.326;-0.068;2022-09-12T09:43:40;5.63;;;1.80;;
69841;SDS011;57138;51.326;-0.068;2022-09-12T09:46:05;11.13;;;2.45;;
69841;SDS011;57138;51.326;-0.068;2022-09-12T09:48:31;11.93;;;2.53;;
69841;SDS011;57138;51.326;-0.068;2022-09-12T09:51:00;6.82;;;1.98;;
69841;SDS011;57138;51.326;-0.068;2022-09-12T09:56:00;9.20;;;1.85;;
69841;SDS011;57138;51.326;-0.068;2022-09-12T09:58:34;7.30;;;1.70;;
69841;SDS011;57138;51.326;-0.068;2022-09-12T10:01:01;7.80;;;2.13;;
69841;SDS011;57138;51.326;-0.068;2022-09-12T10:03:36;5.47;;;1.52;;
69841;SDS011;57138;51.326;-0.068;2022-09-12T10:06:21;19.95;;;3.10;;
69841;SDS011;57138;51.326;-0.068;2022-09-12T10:08:50;7.40;;;1.75;;
69841;SDS011;57138;51.326;-0.068;2022-09-12T10:11:28;9.90;;;2.13;;
69841;SDS011;57138;51.326;-0.068;2022-09-12T10:13:56;6.97;;;1.80;;
69841;SDS011;57138;51.326;-0.068;2022-09-12T10:18:56;8.02;;;2.53;;
69841;SDS011;57138;51.326;-0.068;2022-09-12T10:21:28;3.30;;;1.30;;
69841;SDS011;57138;51.326;-0.068;2022-09-12T10:24:24;3.83;;;1.50;;
69841;SDS011;57138;51.326;-0.068;2022-09-12T10:27:31;11.10;;;1.70;;
69841;SDS011;57138;51.326;-0.068;2022-09-12T10:30:03;6.55;;;1.48;;
69841;SDS011;57138;51.326;-0.068;2022-09-12T10:32:38;5.97;;;1.50;;
69841;SDS011;57138;51.326;-0.068;2022-09-12T10:35:16;8.98;;;1.92;;
69841;SDS011;57138;51.326;-0.068;2022-09-12T10:38:03;5.35;;;2.33;;
69841;SDS011;57138;51.326;-0.068;2022-09-12T10:43:46;6.03;;;1.50;;
69841;SDS011;57138;51.326;-0.068;2022-09-12T10:46:20;3.20;;;1.20;;
69841;SDS011;57138;51.326;-0.068;2022-09-12T10:48:45;7.20;;;1.50;;
69841;SDS011;57138;51.326;-0.068;2022-09-12T10:53:50;4.47;;;1.48;;
69841;SDS011;57138;51.326;-0.068;2022-09-12T10:56:23;6.25;;;1.52;;
69841;SDS011;57138;51.326;-0.068;2022-09-12T11:01:45;5.78;;;1.50;;
69841;SDS011;57138;51.326;-0.068;2022-09-12T11:09:18;5.80;;;1.75;;
69841;SDS011;57138;51.326;-0.068;2022-09-12T11:11:52;6.18;;;1.50;;
69841;SDS011;57138;51.326;-0.068;2022-09-12T11:14:32;6.28;;;1.42;;
69841;SDS011;57138;51.326;-0.068;2022-09-12T11:28:17;6.68;;;1.35;;
69841;SDS011;57138;51.326;-0.068;2022-09-12T11:33:45;4.47;;;1.17;;
69841;SDS011;57138;51.326;-0.068;2022-09-12T11:41:44;4.30;;;1.15;;
69841;SDS011;57138;51.326;-0.068;2022-09-12T11:44:40;2.88;;;0.95;;
69841;SDS011;57138;51.326;-0.068;2022-09-12T11:47:10;4.78;;;1.20;;
69841;SDS011;57138;51.326;-0.068;2022-09-12T11:49:44;3.88;;;1.10;;
69841;SDS011;57138;51.326;-0.068;2022-09-12T11:52:24;13.15;;;1.77;;
69841;SDS011;57138;51.326;-0.068;2022-09-12T11:55:10;6.95;;;1.40;;
69841;SDS011;57138;51.326;-0.068;2022-09-12T11:57:44;6.20;;;1.10;;
69841;SDS011;57138;51.326;-0.068;2022-09-12T12:00:21;5.60;;;1.15;;
69841;SDS011;57138;51.326;-0.068;2022-09-12T12:08:19;6.43;;;1.17;;
69841;SDS011;57138;51.326;-0.068;2022-09-12T12:13:25;49.60;;;30.05;;
69841;SDS011;57138;51.326;-0.068;2022-09-12T12:16:05;15.02;;;11.02;;
69841;SDS011;57138;51.326;-0.068;2022-09-12T12:18:32;6.72;;;2.05;;
69841;SDS011;57138;51.326;-0.068;2022-09-12T12:29:03;5.00;;;1.27;;
69841;SDS011;57138;51.326;-0.068;2022-09-12T12:31:29;4.22;;;1.20;;
69841;SDS011;57138;51.326;-0.068;2022-09-12T12:34:02;3.92;;;1.00;;
69841;SDS011;57138;51.326;-0.068;2022-09-12T12:36:38;3.42;;;0.90;;
69841;SDS011;57138;51.326;-0.068;2022-09-12T12:42:00;2.53;;;0.80;;
69841;SDS011;57138;51.326;-0.068;2022-09-12T12:44:47;4.28;;;1.65;;
69841;SDS011;57138;51.326;-0.068;2022-09-12T12:47:19;36.25;;;6.82;;
69841;SDS011;57138;51.326;-0.068;2022-09-12T12:49:54;9.02;;;1.88;;
69841;SDS011;57138;51.326;-0.068;2022-09-12T12:52:23;4.43;;;1.20;;
69841;SDS011;57138;51.326;-0.068;2022-09-12T12:54:57;4.25;;;1.35;;
69841;SDS011;57138;51.326;-0.068;2022-09-12T12:57:29;2.60;;;0.93;;
69841;SDS011;57138;51.326;-0.068;2022-09-12T13:00:36;4.30;;;1.00;;
69841;SDS011;57138;51.326;-0.068;2022-09-12T13:05:38;5.65;;;1.23;;
69841;SDS011;57138;51.326;-0.068;2022-09-12T13:10:34;7.40;;;1.25;;
69841;SDS011;57138;51.326;-0.068;2022-09-12T13:13:01;12.65;;;2.33;;
69841;SDS011;57138;51.326;-0.068;2022-09-12T13:18:04;2.55;;;0.80;;
69841;SDS011;57138;51.326;-0.068;2022-09-12T13:23:38;3.92;;;1.00;;
69841;SDS011;57138;51.326;-0.068;2022-09-12T13:26:12;7.63;;;1.50;;
69841;SDS011;57138;51.326;-0.068;2022-09-12T13:31:57;2.85;;;0.90;;
69841;SDS011;57138;51.326;-0.068;2022-09-12T13:34:28;5.07;;;1.23;;
69841;SDS011;57138;51.326;-0.068;2022-09-12T13:47:39;3.28;;;1.00;;
69841;SDS011;57138;51.326;-0.068;2022-09-12T13:50:12;2.15;;;0.90;;
69841;SDS011;57138;51.326;-0.068;2022-09-12T13:52:44;5.13;;;0.90;;
69841;SDS011;57138;51.326;-0.068;2022-09-12T13:57:58;3.10;;;0.80;;
69841;SDS011;57138;51.326;-0.068;2022-09-12T14:00:32;4.63;;;1.05;;
69841;SDS011;57138;51.326;-0.068;2022-09-12T14:02:59;3.78;;;0.88;;
69841;SDS011;57138;51.326;-0.068;2022-09-12T14:05:45;4.88;;;1.00;;
69841;SDS011;57138;51.326;-0.068;2022-09-12T14:10:47;5.97;;;1.20;;
69841;SDS011;57138;51.326;-0.068;2022-09-12T14:13:18;3.97;;;0.95;;
69841;SDS011;57138;51.326;-0.068;2022-09-12T14:15:47;4.20;;;1.00;;
69841;SDS011;57138;51.326;-0.068;2022-09-12T14:18:26;3.08;;;0.98;;
69841;SDS011;57138;51.326;-0.068;2022-09-12T14:21:04;5.18;;;0.90;;
69841;SDS011;57138;51.326;-0.068;2022-09-12T14:23:40;5.70;;;0.95;;
69841;SDS011;57138;51.326;-0.068;2022-09-12T14:26:10;6.00;;;1.13;;
69841;SDS011;57138;51.326;-0.068;2022-09-12T14:28:40;2.85;;;0.90;;
69841;SDS011;57138;51.326;-0.068;2022-09-12T14:33:46;5.75;;;1.20;;
69841;SDS011;57138;51.326;-0.068;2022-09-12T14:36:29;4.65;;;1.20;;
69841;SDS011;57138;51.326;-0.068;2022-09-12T14:41:46;7.72;;;1.20;;
69841;SDS011;57138;51.326;-0.068;2022-09-12T14:44:18;6.40;;;1.55;;
69841;SDS011;57138;51.326;-0.068;2022-09-12T14:46:49;6.57;;;0.90;;
69841;SDS011;57138;51.326;-0.068;2022-09-12T14:59:40;3.47;;;1.05;;
69841;SDS011;57138;51.326;-0.068;2022-09-12T15:04:48;3.45;;;0.70;;
69841;SDS011;57138;51.326;-0.068;2022-09-12T15:10:03;5.72;;;1.92;;
69841;SDS011;57138;51.326;-0.068;2022-09-12T15:12:50;3.88;;;1.50;;
69841;SDS011;57138;51.326;-0.068;2022-09-12T15:15:54;4.93;;;1.60;;
69841;SDS011;57138;51.326;-0.068;2022-09-12T15:18:22;4.18;;;1.70;;
69841;SDS011;57138;51.326;-0.068;2022-09-12T15:20:51;3.40;;;1.10;;
69841;SDS011;57138;51.326;-0.068;2022-09-12T15:26:04;5.68;;;1.30;;
69841;SDS011;57138;51.326;-0.068;2022-09-12T15:28:31;3.70;;;1.13;;
69841;SDS011;57138;51.326;-0.068;2022-09-12T15:31:00;3.75;;;1.45;;
69841;SDS011;57138;51.326;-0.068;2022-09-12T15:33:29;4.40;;;1.40;;
69841;SDS011;57138;51.326;-0.068;2022-09-12T15:35:55;4.78;;;1.23;;
69841;SDS011;57138;51.326;-0.068;2022-09-12T15:38:21;2.90;;;0.68;;
69841;SDS011;57138;51.326;-0.068;2022-09-12T15:40:49;3.65;;;1.02;;
69841;SDS011;57138;51.326;-0.068;2022-09-12T15:43:18;6.07;;;1.02;;
69841;SDS011;57138;51.326;-0.068;2022-09-12T15:45:44;5.47;;;1.13;;
69841;SDS011;57138;51.326;-0.068;2022-09-12T15:48:11;4.50;;;1.20;;
69841;SDS011;57138;51.326;-0.068;2022-09-12T15:50:38;5.50;;;1.00;;
69841;SDS011;57138;51.326;-0.068;2022-09-12T15:53:05;5.97;;;1.10;;
69841;SDS011;57138;51.326;-0.068;2022-09-12T15:55:30;6.97;;;1.13;;
69841;SDS011;57138;51.326;-0.068;2022-09-12T15:57:57;3.90;;;0.88;;
69841;SDS011;57138;51.326;-0.068;2022-09-12T16:00:24;3.65;;;1.20;;
69841;SDS011;57138;51.326;-0.068;2022-09-12T16:02:50;5.63;;;1.20;;
69841;SDS011;57138;51.326;-0.068;2022-09-12T16:05:18;5.03;;;1.10;;
69841;SDS011;57138;51.326;-0.068;2022-09-12T16:07:46;3.85;;;0.93;;
69841;SDS011;57138;51.326;-0.068;2022-09-12T16:10:15;4.82;;;1.17;;
69841;SDS011;57138;51.326;-0.068;2022-09-12T16:12:43;4.22;;;0.90;;
69841;SDS011;57138;51.326;-0.068;2022-09-12T16:15:13;4.88;;;1.02;;
69841;SDS011;57138;51.326;-0.068;2022-09-12T16:17:41;2.53;;;0.75;;
69841;SDS011;57138;51.326;-0.068;2022-09-12T16:20:07;4.28;;;0.95;;
69841;SDS011;57138;51.326;-0.068;2022-09-12T16:22:34;4.15;;;1.10;;
69841;SDS011;57138;51.326;-0.068;2022-09-12T16:25:01;3.53;;;0.95;;
69841;SDS011;57138;51.326;-0.068;2022-09-12T16:27:26;4.45;;;1.27;;
69841;SDS011;57138;51.326;-0.068;2022-09-12T16:29:52;4.80;;;1.20;;
69841;SDS011;57138;51.326;-0.068;2022-09-12T16:32:17;5.57;;;1.02;;
69841;SDS011;57138;51.326;-0.068;2022-09-12T16:34:43;6.82;;;1.48;;
69841;SDS011;57138;51.326;-0.068;2022-09-12T16:37:10;3.60;;;0.90;;
69841;SDS011;57138;51.326;-0.068;2022-09-12T16:39:35;4.45;;;1.05;;
69841;SDS011;57138;51.326;-0.068;2022-09-12T16:42:01;5.38;;;1.10;;
69841;SDS011;57138;51.326;-0.068;2022-09-12T16:44:28;4.85;;;0.85;;
69841;SDS011;57138;51.326;-0.068;2022-09-12T16:46:53;2.65;;;0.93;;
69841;SDS011;57138;51.326;-0.068;2022-09-12T16:49:19;4.85;;;1.00;;
69841;SDS011;57138;51.326;-0.068;2022-09-12T16:51:45;5.00;;;1.33;;
69841;SDS011;57138;51.326;-0.068;2022-09-12T16:54:12;7.53;;;1.23;;
69841;SDS011;57138;51.326;-0.068;2022-09-12T16:56:39;4.25;;;1.65;;
69841;SDS011;57138;51.326;-0.068;2022-09-12T16:59:05;6.82;;;1.40;;
69841;SDS011;57138;51.326;-0.068;2022-09-12T17:01:34;4.88;;;1.88;;
69841;SDS011;57138;51.326;-0.068;2022-09-12T17:04:00;5.35;;;1.45;;
69841;SDS011;57138;51.326;-0.068;2022-09-12T17:06:26;7.00;;;1.30;;
69841;SDS011;57138;51.326;-0.068;2022-09-12T17:08:53;7.80;;;1.63;;
69841;SDS011;57138;51.326;-0.068;2022-09-12T17:11:25;3.92;;;1.40;;
69841;SDS011;57138;51.326;-0.068;2022-09-12T17:13:56;4.95;;;1.42;;
69841;SDS011;57138;51.326;-0.068;2022-09-12T17:16:24;3.53;;;1.30;;
69841;SDS011;57138;51.326;-0.068;2022-09-12T17:18:50;5.13;;;1.25;;
69841;SDS011;57138;51.326;-0.068;2022-09-12T17:21:17;6.47;;;1.52;;
69841;SDS011;57138;51.326;-0.068;2022-09-12T17:23:43;9.50;;;1.70;;
69841;SDS011;57138;51.326;-0.068;2022-09-12T17:26:14;3.60;;;1.25;;
69841;SDS011;57138;51.326;-0.068;2022-09-12T17:28:40;10.18;;;1.85;;
69841;SDS011;57138;51.326;-0.068;2022-09-12T17:31:09;7.30;;;1.42;;
69841;SDS011;57138;51.326;-0.068;2022-09-12T17:33:36;4.63;;;1.23;;
69841;SDS011;57138;51.326;-0.068;2022-09-12T17:36:07;8.93;;;1.38;;
69841;SDS011;57138;51.326;-0.068;2022-09-12T17:38:36;6.13;;;1.67;;
69841;SDS011;57138;51.326;-0.068;2022-09-12T17:41:07;4.82;;;1.40;;
69841;SDS011;57138;51.326;-0.068;2022-09-12T17:43:44;4.07;;;1.30;;
69841;SDS011;57138;51.326;-0.068;2022-09-12T17:46:14;7.53;;;1.52;;
69841;SDS011;57138;51.326;-0.068;2022-09-12T17:48:39;6.30;;;1.40;;
69841;SDS011;57138;51.326;-0.068;2022-09-12T17:51:13;3.70;;;1.40;;